Terminal Aerodrome Forecast
Issued by NWS

Current Version | Previous Version | Text Only | Print | Product List | Glossary On
Versions: 1 2 3 4 5 6 7 8 9 10 11 12 13 14 15
000
FTAK31 PAJN 121700
TAFAJN
TAF
PAJN 121731Z 1218/1318 10012KT 4SM -RA BR FEW010 SCT028 OVC035
      TEMPO 1218/1220 2SM -RA BR BKN028
     FM122000 12011KT 6SM -RA BR FEW012 OVC035
     FM130300 10008KT 6SM -RA BR SCT012 BKN025 OVC035
     FM130600 09005KT 5SM RA BR BKN015 OVC025
     FM131100 08004KT 3SM -RA BR BKN012 OVC020=

USA.gov is the U.S. government's official web portal to all federal, state and local government web resources and services.